Time;durP1;ratioP1;P1;durP2;ratioP2;P2;SDS_P1;SDS_P2;PMS_P1;PMS_P2;Temp;Humidity;BMP_temperature;BMP_pressure;BME280_temperature;BME280_humidity;BME280_pressure;Samples;Min_cycle;Max_cycle;Signal;HPM_P1;HPM_P2
2023/03/08 00:01:01;;;;;;;8.73;5.05;;;;;;;-0.30;63.49;98356.50;4997760;28;20545;-49
2023/03/08 00:03:28;;;;;;;10.57;4.50;;;;;;;-0.31;63.39;98357.34;4990850;28;20082;-52
2023/03/08 00:05:55;;;;;;;13.32;4.95;;;;;;;-0.31;63.05;98346.31;4998655;28;20045;-50
2023/03/08 00:08:21;;;;;;;10.60;4.72;;;;;;;-0.31;63.57;98342.09;4993778;28;20046;-51
2023/03/08 00:10:48;;;;;;;10.50;4.85;;;;;;;-0.30;63.12;98346.34;4997346;28;20558;-50
2023/03/08 00:13:14;;;;;;;10.40;4.40;;;;;;;-0.30;63.51;98341.25;4994537;28;20073;-50
2023/03/08 00:15:41;;;;;;;11.18;4.43;;;;;;;-0.30;63.80;98342.94;4996072;28;20085;-53
2023/03/08 00:18:07;;;;;;;10.43;5.47;;;;;;;-0.31;63.36;98339.53;4995531;28;20046;-48
2023/03/08 00:20:34;;;;;;;9.90;5.47;;;;;;;-0.32;63.48;98340.38;4998107;28;20127;-53
2023/03/08 00:23:01;;;;;;;9.43;4.53;;;;;;;-0.32;62.96;98339.50;4999460;28;20046;-49
2023/03/08 00:25:27;;;;;;;9.25;3.95;;;;;;;-0.33;63.64;98331.06;4995494;28;20438;-50
2023/03/08 00:27:54;;;;;;;7.88;4.20;;;;;;;-0.34;63.50;98336.94;5000384;28;20058;-49
2023/03/08 00:30:20;;;;;;;14.73;6.25;;;;;;;-0.36;63.71;98328.47;5000159;28;20077;-49
2023/03/08 00:32:47;;;;;;;14.70;6.13;;;;;;;-0.36;63.68;98333.53;5007403;28;20100;-51
2023/03/08 00:35:13;;;;;;;14.38;6.15;;;;;;;-0.36;63.45;98320.81;5007447;28;20091;-52
2023/03/08 00:37:40;;;;;;;15.40;5.68;;;;;;;-0.37;63.88;98315.72;5008772;28;20697;-49
2023/03/08 00:40:08;;;;;;;15.45;6.68;;;;;;;-0.37;63.74;98320.81;5006296;28;20513;-50
2023/03/08 00:42:35;;;;;;;12.50;5.72;;;;;;;-0.38;63.97;98319.94;5005985;28;20084;-52
2023/03/08 00:45:01;;;;;;;12.50;5.97;;;;;;;-0.39;63.95;98313.16;5002826;28;20141;-49
2023/03/08 00:47:28;;;;;;;13.63;5.60;;;;;;;-0.40;63.59;98317.38;5004555;28;20478;-51
2023/03/08 00:49:55;;;;;;;11.93;5.13;;;;;;;-0.42;64.10;98318.19;5011289;28;20448;-52
2023/03/08 00:52:21;;;;;;;10.55;5.90;;;;;;;-0.44;64.19;98319.88;5022158;28;20041;-49
2023/03/08 00:54:48;;;;;;;15.82;5.30;;;;;;;-0.43;64.29;98319.03;5001793;28;20045;-52
2023/03/08 00:57:15;;;;;;;10.95;4.95;;;;;;;-0.44;64.41;98319.88;5018018;28;20073;-47
2023/03/08 00:59:41;;;;;;;13.68;5.25;;;;;;;-0.48;64.11;98316.41;5006639;28;20092;-52
2023/03/08 01:02:08;;;;;;;9.85;4.75;;;;;;;-0.50;64.29;98309.59;4999651;28;20509;-51
2023/03/08 01:04:34;;;;;;;13.68;5.20;;;;;;;-0.52;64.06;98307.03;5000586;28;20081;-48
2023/03/08 01:07:01;;;;;;;14.23;5.13;;;;;;;-0.52;64.32;98307.91;5000361;28;20549;-48
2023/03/08 01:09:28;;;;;;;11.50;5.30;;;;;;;-0.53;64.34;98311.25;5002863;28;20069;-50
2023/03/08 01:11:54;;;;;;;13.38;5.75;;;;;;;-0.52;64.31;98299.41;5008764;28;20138;-50
2023/03/08 01:14:21;;;;;;;16.27;6.93;;;;;;;-0.49;64.27;98296.03;5005463;28;20088;-51
2023/03/08 01:16:47;;;;;;;11.93;5.55;;;;;;;-0.49;64.79;98296.03;5001793;28;20073;-52
2023/03/08 01:19:14;;;;;;;10.00;4.22;;;;;;;-0.51;64.58;98290.94;5005812;28;20084;-53
2023/03/08 01:21:41;;;;;;;9.05;4.15;;;;;;;-0.52;64.56;98291.78;5003287;28;20046;-51
2023/03/08 01:24:07;;;;;;;6.65;3.20;;;;;;;-0.55;64.29;98287.50;5007480;28;20124;-51
2023/03/08 01:26:34;;;;;;;13.10;6.97;;;;;;;-0.56;64.27;98280.72;5013240;28;20697;-52
2023/03/08 01:29:00;;;;;;;9.55;3.83;;;;;;;-0.56;64.67;98275.63;5025635;28;20103;-48
2023/03/08 01:31:28;;;;;;;11.48;5.15;;;;;;;-0.55;64.56;98276.47;5022108;28;20088;-54
2023/03/08 01:33:56;;;;;;;12.45;4.82;;;;;;;-0.56;64.69;98268.00;5002392;28;20601;-53
2023/03/08 01:36:25;;;;;;;8.30;4.28;;;;;;;-0.55;64.75;98267.16;5007564;28;20621;-52
2023/03/08 01:38:52;;;;;;;9.45;4.25;;;;;;;-0.53;64.87;98265.47;5004860;28;20565;-53
2023/03/08 01:41:22;;;;;;;10.95;4.57;;;;;;;-0.54;64.71;98258.69;5012110;28;20139;-52
2023/03/08 01:43:49;;;;;;;9.18;5.05;;;;;;;-0.56;64.94;98250.19;5048818;28;20494;-51
2023/03/08 01:49:17;;;;;;;11.25;4.35;;;;;;;-0.56;64.98;98234.94;5056812;28;20395;-50
2023/03/08 01:51:45;;;;;;;;;;;;;;;-0.57;64.86;98238.28;5019039;28;20058;-53
2023/03/08 01:57:01;;;;;;;8.10;5.15;;;;;;;-0.54;64.87;98223.06;5031022;28;21139;-49
2023/03/08 01:59:31;;;;;;;11.32;4.75;;;;;;;-0.54;64.46;98222.25;5006892;28;20084;-48
2023/03/08 02:01:58;;;;;;;10.05;4.10;;;;;;;-0.52;64.58;98211.25;5005508;28;20069;-53
2023/03/08 02:04:25;;;;;;;12.15;4.40;;;;;;;-0.50;64.84;98212.94;5014924;28;20076;-51
2023/03/08 02:06:52;;;;;;;8.18;5.47;;;;;;;-0.50;64.50;98207.84;5011165;28;20083;-52
2023/03/08 02:09:19;;;;;;;11.50;4.90;;;;;;;-0.49;64.80;98199.38;5015815;28;20045;-49
2023/03/08 02:11:47;;;;;;;9.75;5.60;;;;;;;-0.47;64.78;98192.63;5016445;28;20144;-53
2023/03/08 02:14:13;;;;;;;13.00;6.03;;;;;;;-0.48;64.18;98190.94;5005779;28;20099;-51
2023/03/08 02:16:40;;;;;;;9.30;5.72;;;;;;;-0.48;64.83;98186.69;5007423;28;20670;-52
2023/03/08 02:19:15;;;;;;;8.93;4.10;;;;;;;-0.47;64.67;98185.00;5007303;28;20502;-48
2023/03/08 02:21:42;;;;;;;15.63;6.97;;;;;;;-0.49;64.34;98181.59;5010245;28;20065;-51
2023/03/08 02:24:25;;;;;;;12.55;6.25;;;;;;;-0.49;64.75;98173.94;5013159;28;20067;-53
2023/03/08 02:27:02;;;;;;;9.60;5.60;;;;;;;-0.49;65.14;98174.81;5011391;28;20095;-52
2023/03/08 02:29:29;;;;;;;8.82;5.28;;;;;;;-0.47;64.66;98162.13;5012976;28;20124;-49
2023/03/08 02:31:56;;;;;;;8.88;5.03;;;;;;;-0.47;64.83;98165.50;5003080;28;20585;-51
2023/03/08 02:34:22;;;;;;;8.05;5.38;;;;;;;-0.46;64.74;98158.72;5014656;28;20084;-49
2023/03/08 02:36:49;;;;;;;11.00;5.28;;;;;;;-0.46;65.00;98146.00;5008171;28;20073;-53
2023/03/08 02:39:15;;;;;;;12.15;6.47;;;;;;;-0.46;64.91;98135.84;5012457;28;20120;-52
2023/03/08 02:41:42;;;;;;;14.48;6.30;;;;;;;-0.46;64.91;98133.28;5011995;28;20074;-52
2023/03/08 02:44:08;;;;;;;8.20;5.63;;;;;;;-0.45;65.20;98127.38;5015345;28;20076;-53
2023/03/08 02:46:35;;;;;;;9.15;5.75;;;;;;;-0.45;64.94;98125.69;5013325;28;20082;-49
2023/03/08 02:49:02;;;;;;;9.32;5.07;;;;;;;-0.47;65.24;98122.25;5013723;28;20057;-51
2023/03/08 02:51:28;;;;;;;10.77;3.83;;;;;;;-0.49;64.81;98112.91;5011629;28;20113;-51
2023/03/08 02:53:55;;;;;;;11.45;5.80;;;;;;;-0.53;65.20;98105.25;5012934;28;20046;-51
2023/03/08 02:56:21;;;;;;;7.10;3.40;;;;;;;-0.52;65.13;98099.34;5011998;28;20075;-52
2023/03/08 02:58:48;;;;;;;9.63;5.57;;;;;;;-0.52;65.40;98101.88;5012310;28;20080;-50
2023/03/08 03:01:15;;;;;;;6.90;4.40;;;;;;;-0.54;65.18;98090.81;5016389;28;20046;-50
2023/03/08 03:03:45;;;;;;;10.55;5.32;;;;;;;-0.54;65.35;98090.00;5009246;28;20133;-49
2023/03/08 03:06:15;;;;;;;10.45;4.47;;;;;;;-0.54;65.27;98085.75;5013287;28;20228;-50
2023/03/08 03:08:42;;;;;;;9.18;5.18;;;;;;;-0.53;65.78;98082.34;4992926;28;20084;-49
2023/03/08 03:13:54;;;;;;;10.02;5.95;;;;;;;-0.49;65.05;98077.31;5052600;27;20379;-51
2023/03/08 03:16:21;;;;;;;9.75;5.72;;;;;;;-0.50;65.67;98070.50;5004823;28;20069;-48
2023/03/08 03:18:47;;;;;;;9.73;5.45;;;;;;;-0.50;65.35;98075.59;5032504;28;20387;-52
2023/03/08 03:21:14;;;;;;;7.93;4.97;;;;;;;-0.49;65.32;98059.50;5020528;28;20132;-52
2023/03/08 03:23:40;;;;;;;8.50;4.10;;;;;;;-0.48;65.37;98058.69;5021862;28;20054;-52
2023/03/08 03:26:10;;;;;;;10.38;5.35;;;;;;;-0.48;65.37;98058.69;5021777;28;20132;-53
2023/03/08 03:28:37;;;;;;;8.30;5.38;;;;;;;-0.48;65.59;98053.59;5002470;28;20085;-53
2023/03/08 03:31:09;;;;;;;10.35;6.63;;;;;;;-0.48;65.62;98051.06;5022015;28;20041;-49
2023/03/08 03:33:35;;;;;;;8.43;5.22;;;;;;;-0.49;65.52;98042.56;4998557;28;20432;-52
2023/03/08 03:36:02;;;;;;;11.02;6.55;;;;;;;-0.49;65.52;98039.16;5014080;28;20046;-49
2023/03/08 03:38:29;;;;;;;12.82;5.28;;;;;;;-0.49;65.78;98039.16;5015649;28;20069;-53
2023/03/08 03:41:05;;;;;;;8.32;5.60;;;;;;;-0.52;65.79;98033.22;5020518;28;20053;-53
2023/03/08 03:43:33;;;;;;;7.70;4.40;;;;;;;-0.52;65.72;98030.66;4999277;28;20074;-50
2023/03/08 03:46:02;;;;;;;7.80;5.03;;;;;;;-0.52;65.88;98033.22;5021147;28;20100;-49
2023/03/08 03:48:28;;;;;;;7.15;5.07;;;;;;;-0.55;65.90;98025.53;5018495;28;20652;-49
2023/03/08 03:50:57;;;;;;;8.80;4.85;;;;;;;-0.53;65.95;98026.41;5015063;28;20050;-48
2023/03/08 03:53:26;;;;;;;9.15;5.55;;;;;;;-0.52;66.23;98015.41;5016587;28;20080;-50
2023/03/08 03:55:52;;;;;;;6.90;3.80;;;;;;;-0.50;66.18;98014.56;5028419;28;20728;-52
2023/03/08 03:58:19;;;;;;;7.53;4.93;;;;;;;-0.50;65.59;98014.56;5017060;28;20046;-50
2023/03/08 04:00:46;;;;;;;9.32;5.57;;;;;;;-0.50;65.98;98009.47;5016864;28;20079;-52
2023/03/08 04:03:12;;;;;;;7.03;3.75;;;;;;;-0.49;66.08;98003.53;5014289;28;20526;-49
2023/03/08 04:05:39;;;;;;;10.13;4.93;;;;;;;-0.48;66.10;98002.72;5014054;28;20145;-51
2023/03/08 04:08:07;;;;;;;9.88;5.28;;;;;;;-0.48;65.98;97997.63;5017854;28;20057;-51
2023/03/08 04:10:34;;;;;;;8.63;5.38;;;;;;;-0.47;66.15;97994.25;5016376;28;20049;-48
2023/03/08 04:13:01;;;;;;;10.02;6.05;;;;;;;-0.47;65.97;97994.25;5018426;28;20049;-49
2023/03/08 04:15:28;;;;;;;9.10;5.53;;;;;;;-0.49;66.31;97985.75;5008150;28;20071;-51
2023/03/08 04:17:54;;;;;;;12.13;5.55;;;;;;;-0.48;65.99;97977.28;5016520;28;20509;-49
2023/03/08 04:20:22;;;;;;;10.27;5.63;;;;;;;-0.50;66.04;97974.72;5013917;28;20084;-49
2023/03/08 04:22:48;;;;;;;9.50;5.57;;;;;;;-0.49;66.06;97975.56;5013893;28;20073;-53
2023/03/08 04:25:15;;;;;;;7.00;3.90;;;;;;;-0.52;65.94;97972.19;5003084;28;20045;-51
2023/03/08 04:27:42;;;;;;;9.65;6.38;;;;;;;-0.50;66.26;97974.72;5004005;28;20082;-50
2023/03/08 04:30:09;;;;;;;12.50;3.63;;;;;;;-0.53;66.11;97965.38;5007693;28;20042;-50
2023/03/08 04:32:36;;;;;;;11.38;4.40;;;;;;;-0.54;66.35;97968.75;5008364;28;20084;-51
2023/03/08 04:35:03;;;;;;;9.05;3.45;;;;;;;-0.54;66.70;97958.56;5000214;28;20500;-50
2023/03/08 04:37:30;;;;;;;13.10;5.70;;;;;;;-0.56;66.71;97950.09;4999908;28;20095;-49
2023/03/08 04:39:56;;;;;;;14.35;3.88;;;;;;;-0.58;66.76;97954.31;5005535;28;20045;-50
2023/03/08 04:42:23;;;;;;;9.45;4.00;;;;;;;-0.58;66.58;97946.69;5005689;28;20042;-48
2023/03/08 04:44:50;;;;;;;12.05;5.82;;;;;;;-0.57;66.93;97948.38;5008377;28;20398;-49
2023/03/08 04:47:16;;;;;;;10.60;4.53;;;;;;;-0.56;66.79;97955.19;5002722;28;20180;-51
2023/03/08 04:49:43;;;;;;;12.00;5.03;;;;;;;-0.55;66.80;97945.84;5007435;28;20038;-51
2023/03/08 04:52:09;;;;;;;10.38;4.95;;;;;;;-0.54;66.75;97945.88;5002108;28;20137;-52
2023/03/08 04:54:36;;;;;;;12.95;4.38;;;;;;;-0.53;66.82;97950.09;5000283;28;20081;-50
2023/03/08 04:57:03;;;;;;;9.55;4.65;;;;;;;-0.53;66.95;97939.94;5005208;28;20131;-48
2023/03/08 04:59:29;;;;;;;11.60;4.45;;;;;;;-0.54;67.19;97933.16;5005178;28;20045;-52
2023/03/08 05:01:56;;;;;;;10.18;4.80;;;;;;;-0.56;67.33;97929.75;5005259;28;20054;-54
2023/03/08 05:04:22;;;;;;;11.15;4.90;;;;;;;-0.56;67.23;97929.75;5003820;28;20052;-49
2023/03/08 05:06:49;;;;;;;11.23;4.30;;;;;;;-0.56;67.71;97939.06;4999903;28;20066;-50
2023/03/08 05:09:15;;;;;;;9.05;4.85;;;;;;;-0.56;67.44;97929.75;5001830;28;20510;-48
2023/03/08 05:11:42;;;;;;;9.07;5.88;;;;;;;-0.55;67.33;97934.00;4995816;28;20058;-53
2023/03/08 05:14:08;;;;;;;12.70;6.00;;;;;;;-0.52;67.34;97936.56;5007541;28;20070;-52
2023/03/08 05:16:35;;;;;;;12.88;7.68;;;;;;;-0.50;67.33;97943.34;5000568;28;20049;-49
2023/03/08 05:19:02;;;;;;;12.60;6.95;;;;;;;-0.47;67.22;97938.28;5002685;28;20052;-52
2023/03/08 05:21:28;;;;;;;11.82;5.55;;;;;;;-0.45;67.44;97931.50;4998243;28;20077;-53
2023/03/08 05:23:58;;;;;;;15.65;7.05;;;;;;;-0.43;67.35;97924.75;5000653;28;20735;-53
2023/03/08 05:26:24;;;;;;;13.98;7.22;;;;;;;-0.42;67.34;97929.00;5004189;28;20108;-50
2023/03/08 05:28:51;;;;;;;10.95;6.70;;;;;;;-0.40;67.41;97934.97;4998484;28;20564;-53
2023/03/08 05:31:20;;;;;;;15.30;7.55;;;;;;;-0.40;67.49;97934.97;5001092;28;20080;-51
2023/03/08 05:33:49;;;;;;;17.67;8.05;;;;;;;-0.42;67.82;97926.44;4999647;28;20041;-50
2023/03/08 05:36:17;;;;;;;15.35;6.20;;;;;;;-0.41;67.80;97923.06;5003220;28;20050;-53
2023/03/08 05:38:44;;;;;;;14.45;7.00;;;;;;;-0.40;67.61;97929.88;4999908;28;20066;-52
2023/03/08 05:41:13;;;;;;;13.43;8.27;;;;;;;-0.38;67.71;97928.19;4998766;28;20104;-53
2023/03/08 05:43:41;;;;;;;11.18;4.80;;;;;;;-0.37;67.81;97921.41;5001306;28;20128;-52
2023/03/08 05:46:11;;;;;;;13.40;5.53;;;;;;;-0.37;67.26;97924.81;4997294;28;20065;-53
2023/03/08 05:48:38;;;;;;;;;;;;;;;-0.39;67.60;97913.75;5002683;28;20076;-48
2023/03/08 05:51:07;;;;;;;10.50;6.10;;;;;;;-0.37;67.24;97907.00;4999905;28;19968;-50
2023/03/08 05:53:34;;;;;;;12.30;7.00;;;;;;;-0.34;67.81;97911.25;5000971;28;20650;-48
2023/03/08 05:56:11;;;;;;;13.07;6.75;;;;;;;-0.34;67.49;97913.81;4996861;28;20054;-50
2023/03/08 05:58:38;;;;;;;;;;;;;;;-0.36;67.50;97906.16;4998716;28;20131;-53
2023/03/08 06:01:10;;;;;;;10.23;5.28;;;;;;;-0.35;67.94;97900.22;5002235;28;19929;-52
2023/03/08 06:03:36;;;;;;;12.07;6.60;;;;;;;-0.33;67.58;97890.06;4997239;28;20379;-53
2023/03/08 06:06:03;;;;;;;11.25;5.60;;;;;;;-0.33;67.64;97888.38;5002860;28;20056;-54
2023/03/08 06:08:30;;;;;;;12.52;6.72;;;;;;;-0.34;68.08;97889.19;5000040;28;20081;-53
2023/03/08 06:10:57;;;;;;;10.48;6.65;;;;;;;-0.32;67.35;97886.66;5002223;28;20953;-51
2023/03/08 06:13:23;;;;;;;10.55;5.60;;;;;;;-0.33;67.82;97884.97;4996605;28;20465;-53
2023/03/08 06:15:55;;;;;;;5.15;4.18;;;;;;;-0.33;67.97;97890.91;5000941;28;20080;-51
2023/03/08 06:18:23;;;;;;;9.77;4.60;;;;;;;-0.32;67.84;97882.44;5001047;28;20129;-50
2023/03/08 06:21:12;;;;;;;8.95;6.03;;;;;;;-0.33;68.12;97880.75;5000596;28;20100;-52
2023/03/08 06:23:39;;;;;;;11.95;5.90;;;;;;;-0.31;68.07;97871.41;4990486;28;20070;-51
2023/03/08 06:26:07;;;;;;;10.88;5.10;;;;;;;-0.31;68.40;97858.69;5002019;28;20085;-52
2023/03/08 06:28:34;;;;;;;11.73;5.47;;;;;;;-0.31;68.07;97856.16;4996172;28;20085;-52
2023/03/08 06:31:01;;;;;;;9.13;4.85;;;;;;;-0.30;68.09;97859.56;4997888;28;20076;-51
2023/03/08 06:33:29;;;;;;;9.07;6.13;;;;;;;-0.28;68.09;97878.22;4998407;28;20066;-52
2023/03/08 06:36:06;;;;;;;9.20;6.53;;;;;;;-0.28;68.48;97873.97;5000254;28;20081;-51
2023/03/08 06:38:35;;;;;;;9.82;4.15;;;;;;;-0.26;68.14;97872.28;4997634;28;20548;-50
2023/03/08 06:41:02;;;;;;;10.63;6.18;;;;;;;-0.27;68.65;97887.56;5015033;28;20088;-50
2023/03/08 06:43:29;;;;;;;11.63;5.32;;;;;;;-0.30;68.93;97880.75;5002237;28;20104;-51
2023/03/08 06:45:56;;;;;;;10.95;7.25;;;;;;;-0.30;68.75;97883.28;5004130;28;20085;-50
2023/03/08 06:48:23;;;;;;;13.95;5.97;;;;;;;-0.32;68.76;97879.03;5001172;28;20046;-52
2023/03/08 06:50:50;;;;;;;9.18;4.78;;;;;;;-0.34;69.37;97873.09;5000440;28;20077;-54
2023/03/08 06:53:16;;;;;;;10.75;6.00;;;;;;;-0.33;68.87;97868.03;5000627;28;20045;-50
2023/03/08 06:55:43;;;;;;;12.80;6.53;;;;;;;-0.29;69.38;97851.94;4995167;28;20478;-49
2023/03/08 06:58:10;;;;;;;11.48;6.70;;;;;;;-0.26;69.32;97859.56;4997644;28;20045;-47
2023/03/08 07:00:37;;;;;;;10.05;3.90;;;;;;;-0.22;68.81;97863.00;5001304;28;20690;-51
2023/03/08 07:03:03;;;;;;;9.93;4.00;;;;;;;-0.18;69.63;97866.38;5000610;28;20127;-52
2023/03/08 07:05:30;;;;;;;11.82;5.75;;;;;;;-0.15;69.66;97869.81;4994909;28;20575;-53
2023/03/08 07:07:57;;;;;;;10.13;4.00;;;;;;;-0.16;70.37;97867.25;4997183;28;20115;-50
2023/03/08 07:10:24;;;;;;;6.40;3.85;;;;;;;-0.21;72.05;97863.84;4995005;28;20199;-49
2023/03/08 07:12:51;;;;;;;7.45;4.53;;;;;;;-0.19;72.09;97867.25;4994112;28;20113;-48
2023/03/08 07:15:20;;;;;;;8.40;3.45;;;;;;;-0.18;71.99;97874.88;4996945;28;20052;-51
2023/03/08 07:17:49;;;;;;;7.43;4.88;;;;;;;-0.12;71.50;97876.59;4999827;28;20124;-48
2023/03/08 07:20:18;;;;;;;9.00;4.28;;;;;;;-0.08;71.09;97877.47;4994287;28;20419;-50
2023/03/08 07:22:46;;;;;;;6.35;2.45;;;;;;;-0.04;71.70;97872.41;4995295;28;20058;-54
2023/03/08 07:25:14;;;;;;;7.13;3.90;;;;;;;0.04;71.02;97879.22;4997352;28;20561;-53
2023/03/08 07:27:41;;;;;;;5.57;2.03;;;;;;;0.06;70.98;97882.63;4998514;28;20058;-51
2023/03/08 07:30:10;;;;;;;8.88;3.80;;;;;;;0.11;71.07;97875.88;4999944;28;20451;-53
2023/03/08 07:32:38;;;;;;;10.13;4.70;;;;;;;0.13;70.55;97858.88;4997863;28;20058;-54
2023/03/08 07:35:07;;;;;;;7.28;2.63;;;;;;;0.19;70.02;97866.56;4996900;28;20049;-53
2023/03/08 07:37:33;;;;;;;7.10;3.75;;;;;;;0.23;70.64;97865.72;4993968;28;20108;-53
2023/03/08 07:40:00;;;;;;;6.88;3.53;;;;;;;0.24;70.69;97861.50;4996734;28;20586;-53
2023/03/08 07:42:26;;;;;;;10.35;4.43;;;;;;;0.28;70.72;97862.34;4991609;28;20129;-54
2023/03/08 07:44:53;;;;;;;9.18;2.83;;;;;;;0.30;69.96;97861.50;4989701;28;20038;-51
2023/03/08 07:47:20;;;;;;;8.40;3.03;;;;;;;0.35;70.08;97864.06;4991571;28;20050;-53
2023/03/08 07:49:47;;;;;;;8.23;4.10;;;;;;;0.37;70.71;97864.91;4988901;28;20096;-52
2023/03/08 07:52:13;;;;;;;8.00;4.00;;;;;;;0.41;70.10;97859.00;4995196;28;20443;-55
2023/03/08 07:54:40;;;;;;;10.20;3.70;;;;;;;0.43;70.48;97852.22;4995754;28;20683;-53
2023/03/08 07:57:12;;;;;;;6.85;3.47;;;;;;;0.48;70.50;97860.69;4995312;28;20050;-52
2023/03/08 07:59:38;;;;;;;6.65;3.83;;;;;;;0.50;70.15;97869.22;4995944;28;20053;-54
2023/03/08 08:02:05;;;;;;;4.80;3.50;;;;;;;0.54;70.88;97879.41;4999224;28;20129;-52
2023/03/08 08:04:34;;;;;;;6.45;1.98;;;;;;;0.53;70.02;97878.56;4998332;28;20097;-51
2023/03/08 08:07:00;;;;;;;8.88;2.90;;;;;;;0.59;70.07;97873.50;4995984;28;20085;-52
2023/03/08 08:09:30;;;;;;;6.78;3.95;;;;;;;0.64;69.95;97860.75;4993551;28;20395;-51
2023/03/08 08:11:56;;;;;;;4.85;2.38;;;;;;;0.70;69.89;97858.22;4995805;28;20506;-54
2023/03/08 08:14:23;;;;;;;4.20;1.63;;;;;;;0.74;70.32;97852.28;4992492;28;20515;-53
2023/03/08 08:16:50;;;;;;;4.13;2.33;;;;;;;0.80;70.43;97840.38;5001580;28;20181;-52
2023/03/08 08:19:16;;;;;;;5.45;3.47;;;;;;;0.79;70.77;97838.69;5002357;28;20472;-53
2023/03/08 08:21:43;;;;;;;7.35;2.50;;;;;;;0.87;69.73;97852.28;4995806;28;20067;-51
2023/03/08 08:24:10;;;;;;;8.75;4.25;;;;;;;0.93;69.93;97857.41;4997173;28;20092;-52
2023/03/08 08:26:38;;;;;;;7.18;3.03;;;;;;;0.94;69.26;97853.16;4997554;28;20081;-51
2023/03/08 08:29:04;;;;;;;8.07;2.80;;;;;;;1.00;69.66;97863.34;4999179;28;20096;-52
2023/03/08 08:31:31;;;;;;;4.30;3.10;;;;;;;1.01;70.09;97871.00;4997620;28;20545;-53
2023/03/08 08:33:59;;;;;;;4.45;3.30;;;;;;;1.05;69.25;97871.88;4999573;28;20054;-53
2023/03/08 08:36:26;;;;;;;5.28;2.47;;;;;;;1.07;70.06;97866.75;4997011;28;20524;-51
2023/03/08 08:38:53;;;;;;;5.00;1.88;;;;;;;1.12;68.84;97873.53;4996112;28;20050;-54
2023/03/08 08:41:21;;;;;;;6.05;2.05;;;;;;;1.15;68.78;97878.66;4999224;28;20047;-53
2023/03/08 08:43:49;;;;;;;5.18;2.88;;;;;;;1.08;69.39;97864.19;4992197;28;20088;-54
2023/03/08 08:46:16;;;;;;;5.32;3.88;;;;;;;1.13;68.93;97869.31;4997736;28;20042;-51
2023/03/08 08:48:43;;;;;;;4.68;2.03;;;;;;;1.17;69.59;97863.34;4989286;28;20142;-53
2023/03/08 08:51:12;;;;;;;4.28;1.60;;;;;;;1.17;69.25;97871.00;4992529;28;20136;-54
2023/03/08 08:53:39;;;;;;;20.55;3.58;;;;;;;1.18;68.62;97872.69;4995375;28;20061;-51
2023/03/08 08:56:16;;;;;;;4.82;2.80;;;;;;;1.22;69.48;97886.31;4995476;28;20104;-53
2023/03/08 08:58:54;;;;;;;8.82;3.80;;;;;;;1.23;68.69;97898.19;4996202;28;20052;-50
2023/03/08 09:01:23;;;;;;;3.88;1.75;;;;;;;1.22;69.28;97878.66;5000324;28;20054;-55
2023/03/08 09:03:50;;;;;;;4.03;1.70;;;;;;;1.23;68.04;97877.81;4995966;28;20052;-53
2023/03/08 09:06:19;;;;;;;4.60;2.75;;;;;;;1.23;68.20;97885.44;4998077;28;20037;-49
2023/03/08 09:08:51;;;;;;;7.10;1.58;;;;;;;1.23;68.08;97876.09;5000210;28;20136;-51
2023/03/08 09:11:17;;;;;;;5.50;3.17;;;;;;;1.28;69.23;97874.41;4993916;28;20077;-51
2023/03/08 09:13:44;;;;;;;3.53;2.17;;;;;;;1.37;68.66;97872.69;4991964;28;20544;-53
2023/03/08 09:19:04;;;;;;;4.95;2.95;;;;;;;1.49;68.96;97861.63;5024865;27;21137;-52
2023/03/08 09:21:31;;;;;;;7.45;3.47;;;;;;;1.60;68.58;97854.81;5002232;28;20050;-51
2023/03/08 09:24:01;;;;;;;5.22;3.15;;;;;;;1.71;68.07;97852.22;4997694;28;20146;-53
2023/03/08 09:26:30;;;;;;;8.73;5.85;;;;;;;1.78;69.27;97847.94;4998289;28;20050;-51
2023/03/08 09:29:03;;;;;;;7.45;3.47;;;;;;;1.80;68.39;97839.44;5002996;28;20124;-52
2023/03/08 09:31:31;;;;;;;10.18;4.47;;;;;;;1.88;68.34;97841.13;4993825;28;20526;-51
2023/03/08 09:33:58;;;;;;;4.43;2.70;;;;;;;1.90;68.28;97842.81;4998707;28;20058;-51
2023/03/08 09:36:27;;;;;;;6.07;3.28;;;;;;;1.95;68.23;97845.34;4997260;28;20042;-52
2023/03/08 09:38:54;;;;;;;3.72;2.65;;;;;;;1.98;67.55;97853.00;4993442;28;20054;-53
2023/03/08 09:41:44;;;;;;;2.40;2.20;;;;;;;2.05;67.79;97852.13;4996326;28;20057;-55
2023/03/08 09:47:16;;;;;;;7.60;3.22;;;;;;;2.44;67.25;97848.56;5038870;27;20757;-53
2023/03/08 09:49:47;;;;;;;3.70;2.10;;;;;;;2.30;66.57;97852.00;4988761;28;20133;-53
2023/03/08 09:52:31;;;;;;;3.72;1.60;;;;;;;2.25;67.95;97852.91;4982707;28;20051;-53
2023/03/08 09:55:00;;;;;;;4.35;1.30;;;;;;;2.21;68.05;97856.31;4998594;28;20541;-53
2023/03/08 09:57:33;;;;;;;3.72;1.35;;;;;;;2.18;66.80;97846.97;4981309;28;20050;-52
2023/03/08 10:00:08;;;;;;;3.70;1.88;;;;;;;2.10;67.41;97857.22;4980383;28;20085;-54
2023/03/08 10:08:22;;;;;;;3.97;1.88;;;;;;;2.16;67.68;97854.63;5095325;27;20836;-55
2023/03/08 10:11:12;;;;;;;1.52;0.93;;;;;;;2.13;67.78;97853.81;5078760;28;20164;-52
2023/03/08 10:13:41;;;;;;;2.80;1.30;;;;;;;2.09;67.33;97854.69;5069393;28;21741;-49
2023/03/08 10:21:26;;;;;;;3.17;1.13;;;;;;;2.21;67.86;97872.50;5003314;28;20427;-52
2023/03/08 10:24:01;;;;;;;2.22;1.20;;;;;;;2.26;68.20;97875.06;4986951;28;20049;-53
2023/03/08 10:26:27;;;;;;;2.72;1.08;;;;;;;2.28;68.30;97869.06;4988620;28;20050;-53
2023/03/08 10:28:54;;;;;;;1.67;1.02;;;;;;;2.27;66.71;97869.06;4990363;28;20074;-54
2023/03/08 10:34:10;;;;;;;3.80;1.58;;;;;;;2.16;67.89;97853.81;5009230;27;20774;-52
2023/03/08 10:36:59;;;;;;;2.80;1.48;;;;;;;2.14;67.80;97858.06;5025840;28;20108;-54
2023/03/08 10:39:26;;;;;;;6.85;1.42;;;;;;;2.16;67.75;97848.69;5026343;28;20172;-51
2023/03/08 10:41:56;;;;;;;2.67;0.80;;;;;;;2.15;69.61;97846.97;4997551;28;20090;-54
2023/03/08 10:44:46;;;;;;;3.70;1.38;;;;;;;2.16;68.66;97838.47;4999789;28;20137;-51
2023/03/08 10:50:16;;;;;;;2.15;0.95;;;;;;;2.18;69.88;97840.16;5078111;27;20896;-50
2023/03/08 10:52:45;;;;;;;1.45;0.82;;;;;;;2.16;69.55;97841.03;5002419;28;20050;-52
2023/03/08 10:55:16;;;;;;;2.38;1.60;;;;;;;2.19;69.92;97843.56;5041664;28;20489;-53
2023/03/08 10:58:00;;;;;;;;;;;;;;;2.15;70.37;97846.97;5037854;28;20053;-53
2023/03/08 11:03:21;;;;;;;1.73;1.27;;;;;;;2.20;70.92;97844.41;5041318;27;20410;-55
2023/03/08 11:08:34;;;;;;;3.92;2.90;;;;;;;2.27;70.76;97841.81;5019105;28;20388;-54
2023/03/08 11:11:03;;;;;;;2.53;1.90;;;;;;;2.27;71.78;97846.91;4995964;28;20058;-54
2023/03/08 11:13:35;;;;;;;3.85;2.75;;;;;;;2.30;72.06;97853.75;4994351;28;20041;-54
2023/03/08 11:29:57;;;;;;;1.25;0.70;;;;;;;2.52;70.50;97851.91;5022095;28;20782;-52
2023/03/08 11:41:34;;;;;;;4.15;1.60;;;;;;;2.58;69.88;97851.03;5066244;27;20749;-52
2023/03/08 11:52:17;;;;;;;3.50;2.13;;;;;;;2.63;69.86;97841.63;5057610;27;20407;-50
2023/03/08 11:58:02;;;;;;;1.90;0.60;;;;;;;2.78;69.66;97827.91;4997207;27;20780;-50
2023/03/08 12:00:35;;;;;;;2.35;0.98;;;;;;;2.76;70.64;97842.41;5029715;28;20069;-51
2023/03/08 12:03:25;;;;;;;2.63;0.88;;;;;;;2.83;69.26;97830.41;4998331;28;20053;-55
2023/03/08 12:05:56;;;;;;;1.77;0.43;;;;;;;2.71;69.63;97828.81;4996269;28;20046;-54
2023/03/08 12:08:28;;;;;;;2.15;1.20;;;;;;;2.73;70.25;97833.91;5009043;28;20054;-56
2023/03/08 12:11:02;;;;;;;2.60;1.33;;;;;;;2.74;70.52;97823.69;4991737;28;20047;-55
2023/03/08 12:13:42;;;;;;;0.80;0.45;;;;;;;2.67;71.09;97819.47;4991251;28;20069;-53
2023/03/08 12:27:11;;;;;;;1.30;0.75;;;;;;;2.63;70.35;97812.66;5021699;28;20434;-56
2023/03/08 12:32:18;;;;;;;2.08;0.88;;;;;;;2.54;70.88;97805.91;5038090;27;20405;-55
2023/03/08 12:34:46;;;;;;;2.35;0.82;;;;;;;2.60;70.62;97802.47;4995065;28;20050;-54
2023/03/08 12:37:19;;;;;;;1.30;0.68;;;;;;;2.55;70.86;97811.00;4989562;28;20117;-53
2023/03/08 12:39:57;;;;;;;2.15;1.13;;;;;;;2.53;71.82;97806.78;4992895;28;20078;-56
2023/03/08 12:42:32;;;;;;;1.02;0.85;;;;;;;2.43;71.47;97808.50;5003045;28;20066;-55
2023/03/08 12:50:41;;;;;;;2.28;2.17;;;;;;;2.34;72.31;97806.03;5060016;27;20399;-55
2023/03/08 12:53:37;;;;;;;7.25;3.17;;;;;;;2.42;72.27;97804.25;5041918;28;20040;-55
2023/03/08 12:58:51;;;;;;;2.67;0.85;;;;;;;2.41;71.75;97792.34;5051127;27;20397;-53
2023/03/08 13:07:30;;;;;;;6.38;1.20;;;;;;;2.43;72.02;97799.16;5069105;27;20399;-55
2023/03/08 13:10:08;;;;;;;2.85;1.80;;;;;;;2.36;72.94;97794.09;4996240;28;20136;-57
2023/03/08 13:12:49;;;;;;;3.67;1.50;;;;;;;2.33;72.61;97783.91;5014274;28;20054;-54
2023/03/08 13:15:21;;;;;;;3.03;1.35;;;;;;;2.36;72.92;97774.50;4996070;28;20461;-55
2023/03/08 13:23:48;;;;;;;5.65;2.63;;;;;;;2.44;73.00;97782.13;5033986;27;20392;-56
2023/03/08 13:26:26;;;;;;;3.50;2.40;;;;;;;2.30;73.92;97785.59;4997397;28;20050;-56